createdAt,value
2022-08-11T00:00:48.939Z,2.12
2022-08-11T00:01:51.608Z,1.76
2022-08-11T00:02:54.553Z,1.92
2022-08-11T00:03:57.468Z,2.05
2022-08-11T00:05:00.337Z,1.78
2022-08-11T00:06:02.896Z,1.98
2022-08-11T00:07:05.679Z,1.99
2022-08-11T00:08:08.460Z,1.87
2022-08-11T00:09:11.019Z,1.97
2022-08-11T00:10:13.688Z,2.03
2022-08-11T00:11:16.353Z,2.08
2022-08-11T00:12:19.429Z,1.88
2022-08-11T00:13:22.208Z,1.69
2022-08-11T00:14:24.890Z,1.59
2022-08-11T00:15:29.180Z,1.77
2022-08-11T00:16:31.746Z,1.68
2022-08-11T00:17:34.634Z,1.78
2022-08-11T00:18:37.197Z,1.66
2022-08-11T00:20:15.436Z,1.53
2022-08-11T00:20:43.978Z,1.61
2022-08-11T00:22:04.650Z,1.67
2022-08-11T00:22:50.936Z,1.52
2022-08-11T00:23:53.718Z,1.73
2022-08-11T00:25:01.583Z,1.37
2022-08-11T00:26:00.706Z,1.56
2022-08-11T00:27:03.358Z,1.68
2022-08-11T00:28:06.137Z,1.58
2022-08-11T00:29:08.721Z,1.71
2022-08-11T00:30:11.281Z,1.65
2022-08-11T00:31:14.363Z,1.63
2022-08-11T00:32:17.132Z,1.99
2022-08-11T00:33:19.997Z,1.36
2022-08-11T00:34:24.313Z,1.48
2022-08-11T00:35:54.810Z,1.75
2022-08-11T00:36:31.342Z,1.60
2022-08-11T00:37:34.071Z,1.65
2022-08-11T00:38:36.732Z,1.82
2022-08-11T00:39:39.655Z,1.65
2022-08-11T00:40:42.268Z,1.49
2022-08-11T00:41:44.888Z,1.65
2022-08-11T00:42:47.412Z,1.56
2022-08-11T00:43:50.390Z,1.75
2022-08-11T00:44:53.264Z,1.49
2022-08-11T00:45:56.141Z,1.55
2022-08-11T00:47:00.419Z,1.53
2022-08-11T00:48:03.228Z,1.58
2022-08-11T00:49:05.896Z,1.66
2022-08-11T00:50:08.558Z,1.47
2022-08-11T00:51:11.228Z,1.47
2022-08-11T00:52:13.889Z,1.62
2022-08-11T00:53:16.680Z,1.83
2022-08-11T00:54:20.977Z,1.44
2022-08-11T00:55:23.646Z,1.48
2022-08-11T00:56:26.217Z,1.55
2022-08-11T00:57:37.135Z,1.52
2022-08-11T00:58:33.092Z,1.33
2022-08-11T00:59:37.194Z,1.39
2022-08-11T01:00:39.972Z,1.26
2022-08-11T01:01:42.635Z,1.57
2022-08-11T01:02:45.510Z,1.27
2022-08-11T01:03:48.180Z,1.15
2022-08-11T01:04:55.563Z,1.06
2022-08-11T01:05:55.258Z,1.11
2022-08-11T01:06:58.236Z,1.05
2022-08-11T01:08:03.507Z,1.18
2022-08-11T01:09:05.523Z,1.35
2022-08-11T01:10:08.498Z,1.09
2022-08-11T01:11:11.470Z,1.04
2022-08-11T01:12:14.263Z,1.02
2022-08-11T01:13:17.125Z,1.24
2022-08-11T01:14:34.091Z,1.08
2022-08-11T01:15:24.410Z,1.05
2022-08-11T01:16:27.310Z,1.01
2022-08-11T01:17:30.171Z,1.17
2022-08-11T01:18:32.621Z,1.15
2022-08-11T01:20:47.009Z,1.15
2022-08-11T01:20:47.035Z,1.02
2022-08-11T01:21:43.396Z,1.01
2022-08-11T01:22:45.975Z,1.07
2022-08-11T01:23:48.627Z,1.07
2022-08-11T01:24:51.416Z,1.15
2022-08-11T01:25:56.999Z,1.12
2022-08-11T01:26:58.794Z,1.30
2022-08-11T01:28:01.667Z,1.26
2022-08-11T01:29:04.537Z,1.38
2022-08-11T01:30:07.312Z,1.25
2022-08-11T01:31:10.187Z,1.22
2022-08-11T01:32:13.060Z,1.18
2022-08-11T01:33:16.039Z,1.15
2022-08-11T01:34:19.024Z,1.06
2022-08-11T01:35:21.889Z,1.15
2022-08-11T01:36:24.780Z,1.38
2022-08-11T01:37:27.542Z,1.23
2022-08-11T01:38:30.207Z,1.06
2022-08-11T01:39:33.241Z,1.12
2022-08-11T01:40:35.862Z,1.30
2022-08-11T01:41:38.826Z,1.08
2022-08-11T01:42:42.944Z,1.30
2022-08-11T01:43:45.512Z,1.07
2022-08-11T01:44:48.180Z,1.08
2022-08-11T01:45:50.950Z,0.92
2022-08-11T01:46:53.831Z,1.37
2022-08-11T01:47:56.494Z,1.22
2022-08-11T01:48:59.066Z,1.32
2022-08-11T01:50:09.427Z,1.23
2022-08-11T01:51:05.827Z,1.12
2022-08-11T01:52:08.498Z,1.28
2022-08-11T01:53:11.168Z,1.15
2022-08-11T01:54:13.947Z,1.15
2022-08-11T01:55:16.527Z,1.22
2022-08-11T01:56:19.087Z,1.07
2022-08-11T01:57:21.756Z,1.12
2022-08-11T01:58:43.209Z,1.22
2022-08-11T01:59:28.730Z,1.13
2022-08-11T02:00:31.448Z,1.15
2022-08-11T02:01:34.173Z,1.12
2022-08-11T02:02:37.054Z,1.09
2022-08-11T02:03:39.818Z,1.05
2022-08-11T02:04:42.382Z,1.05
2022-08-11T02:05:45.047Z,1.11
2022-08-11T02:06:47.620Z,0.92
2022-08-11T02:07:50.192Z,1.10
2022-08-11T02:08:52.754Z,1.38
2022-08-11T02:09:56.349Z,1.21
2022-08-11T02:10:59.121Z,1.18
2022-08-11T02:12:02.813Z,1.16
2022-08-11T02:13:05.389Z,1.31
2022-08-11T02:14:09.481Z,1.08
2022-08-11T02:15:12.046Z,1.11
2022-08-11T02:16:14.721Z,1.14
2022-08-11T02:17:17.813Z,1.30
2022-08-11T02:18:20.476Z,1.15
2022-08-11T02:19:25.005Z,1.37
2022-08-11T02:20:27.750Z,1.20
2022-08-11T02:21:30.737Z,1.30
2022-08-11T02:22:33.386Z,1.27
2022-08-11T02:24:05.070Z,1.32
2022-08-11T02:24:40.559Z,1.39
2022-08-11T02:25:43.333Z,1.33
2022-08-11T02:26:46.624Z,1.14
2022-08-11T02:27:49.492Z,1.44
2022-08-11T02:28:52.367Z,1.33
2022-08-11T02:29:55.150Z,1.60
2022-08-11T02:30:58.224Z,1.23
2022-08-11T02:32:15.587Z,1.49
2022-08-11T02:33:05.715Z,1.35
2022-08-11T02:34:08.689Z,1.60
2022-08-11T02:35:11.562Z,1.64
2022-08-11T02:36:14.637Z,1.45
2022-08-11T02:37:23.686Z,1.53
2022-08-11T02:38:21.823Z,1.69
2022-08-11T02:39:24.991Z,1.68
2022-08-11T02:40:27.775Z,1.74
2022-08-11T02:41:30.550Z,1.87
2022-08-11T02:42:36.176Z,1.76
2022-08-11T02:43:37.835Z,2.07
2022-08-11T02:44:42.240Z,2.16
2022-08-11T02:45:44.914Z,2.22
2022-08-11T02:46:47.893Z,1.92
2022-08-11T02:47:50.876Z,2.23
2022-08-11T02:48:53.538Z,2.32
2022-08-11T02:50:02.499Z,2.34
2022-08-11T02:51:01.131Z,2.05
2022-08-11T02:52:04.231Z,1.95
2022-08-11T02:53:07.084Z,2.32
2022-08-11T02:54:09.856Z,2.03
2022-08-11T02:55:12.645Z,2.12
2022-08-11T02:56:16.939Z,2.41
2022-08-11T02:57:19.813Z,2.23
2022-08-11T02:58:27.210Z,2.12
2022-08-11T02:59:26.889Z,2.22
2022-08-11T03:00:29.667Z,2.49
2022-08-11T03:01:32.567Z,2.09
2022-08-11T03:02:35.415Z,2.28
2022-08-11T03:03:38.283Z,2.35
2022-08-11T03:04:40.958Z,2.43
2022-08-11T03:05:43.627Z,2.12
2022-08-11T03:06:46.398Z,2.21
2022-08-11T03:07:49.172Z,2.11
2022-08-11T03:08:52.520Z,2.15
2022-08-11T03:09:55.533Z,1.93
2022-08-11T03:10:58.421Z,2.15
2022-08-11T03:12:01.523Z,2.13
2022-08-11T03:13:06.002Z,2.37
2022-08-11T03:14:08.973Z,2.21
2022-08-11T03:15:11.857Z,2.03
2022-08-11T03:16:14.931Z,2.37
2022-08-11T03:17:17.928Z,2.69
2022-08-11T03:18:20.890Z,2.16
2022-08-11T03:19:24.276Z,2.15
2022-08-11T03:20:38.070Z,2.40
2022-08-11T03:22:01.563Z,2.09
2022-08-11T03:22:36.116Z,1.96
2022-08-11T03:23:39.158Z,1.64
2022-08-11T03:24:42.131Z,1.67
2022-08-11T03:25:45.001Z,1.51
2022-08-11T03:26:47.682Z,1.60
2022-08-11T03:27:50.757Z,1.68
2022-08-11T03:28:53.834Z,1.55
2022-08-11T03:29:57.137Z,1.72
2022-08-11T03:31:00.107Z,1.35
2022-08-11T03:32:03.176Z,1.22
2022-08-11T03:33:06.562Z,1.45
2022-08-11T03:34:09.843Z,1.27
2022-08-11T03:35:16.885Z,1.24
2022-08-11T03:36:17.537Z,1.29
2022-08-11T03:37:20.313Z,1.28
2022-08-11T03:38:23.801Z,1.41
2022-08-11T03:39:28.382Z,1.46
2022-08-11T03:40:31.191Z,1.25
2022-08-11T03:42:02.563Z,1.03
2022-08-11T03:42:38.485Z,1.07
2022-08-11T03:43:50.109Z,1.12
2022-08-11T03:44:45.764Z,1.20
2022-08-11T03:45:48.837Z,1.18
2022-08-11T03:46:51.914Z,1.15
2022-08-11T03:47:55.513Z,1.11
2022-08-11T03:48:58.903Z,1.02
2022-08-11T03:50:02.177Z,1.27
2022-08-11T03:51:05.256Z,1.09
2022-08-11T03:52:08.333Z,1.29
2022-08-11T03:53:11.413Z,1.71
2022-08-11T03:54:14.288Z,2.03
2022-08-11T03:55:17.375Z,1.27
2022-08-11T03:56:20.657Z,1.48
2022-08-11T03:57:23.837Z,1.03
2022-08-11T03:58:26.814Z,1.03
2022-08-11T03:59:29.486Z,1.15
2022-08-11T04:00:32.357Z,1.13
2022-08-11T04:01:35.418Z,1.34
2022-08-11T04:02:38.322Z,1.25
2022-08-11T04:03:41.390Z,1.12
2022-08-11T04:04:45.174Z,1.05
2022-08-11T04:05:48.678Z,0.96
2022-08-11T04:06:51.450Z,1.09
2022-08-11T04:07:54.334Z,1.20
2022-08-11T04:08:57.115Z,1.18
2022-08-11T04:09:59.972Z,1.04
2022-08-11T04:11:02.846Z,1.26
2022-08-11T04:12:05.829Z,1.32
2022-08-11T04:13:08.811Z,1.22
2022-08-11T04:14:11.776Z,1.34
2022-08-11T04:15:14.756Z,1.29
2022-08-11T04:16:17.733Z,0.96
2022-08-11T04:17:22.921Z,0.86
2022-08-11T04:18:25.530Z,1.27
2022-08-11T04:19:28.521Z,1.04
2022-08-11T04:20:31.278Z,1.20
2022-08-11T04:21:34.364Z,1.26
2022-08-11T04:22:37.679Z,1.12
2022-08-11T04:24:34.642Z,1.15
2022-08-11T04:26:16.058Z,1.19
2022-08-11T04:27:08.285Z,1.08
2022-08-11T04:28:28.653Z,1.09
2022-08-11T04:29:17.417Z,1.21
2022-08-11T04:30:20.492Z,1.03
2022-08-11T04:31:50.424Z,1.29
2022-08-11T04:32:27.985Z,1.49
2022-08-11T04:33:34.193Z,1.33
2022-08-11T04:34:35.576Z,1.35
2022-08-11T04:35:38.456Z,1.24
2022-08-11T04:36:41.323Z,1.18
2022-08-11T04:37:44.203Z,1.24
2022-08-11T04:38:48.610Z,1.17
2022-08-11T04:39:51.364Z,1.26
2022-08-11T04:40:54.255Z,1.41
2022-08-11T04:41:57.242Z,1.40
2022-08-11T04:43:00.208Z,1.50
2022-08-11T04:44:06.183Z,1.55
2022-08-11T04:45:08.111Z,1.62
2022-08-11T04:46:11.091Z,1.57
2022-08-11T04:47:13.960Z,1.55
2022-08-11T04:48:16.843Z,1.76
2022-08-11T04:49:24.926Z,1.69
2022-08-11T04:50:24.735Z,1.63
2022-08-11T04:51:27.508Z,1.59
2022-08-11T04:52:36.089Z,1.54
2022-08-11T04:53:34.909Z,1.59
2022-08-11T04:54:37.771Z,1.76
2022-08-11T04:55:40.646Z,1.61
2022-08-11T04:56:43.415Z,1.52
2022-08-11T04:57:46.288Z,1.51
2022-08-11T04:58:48.961Z,1.52
2022-08-11T04:59:51.635Z,1.61
2022-08-11T05:00:54.822Z,1.81
2022-08-11T05:01:59.481Z,1.59
2022-08-11T05:03:02.404Z,1.55
2022-08-11T05:04:05.486Z,1.75
2022-08-11T05:05:08.667Z,1.71
2022-08-11T05:06:11.562Z,1.63
2022-08-11T05:07:14.519Z,1.58
2022-08-11T05:08:21.877Z,1.62
2022-08-11T05:09:22.006Z,1.62
2022-08-11T05:10:25.391Z,1.73
2022-08-11T05:11:28.473Z,1.48
2022-08-11T05:12:31.448Z,1.48
2022-08-11T05:13:34.426Z,1.48
2022-08-11T05:14:37.200Z,1.54
2022-08-11T05:15:43.147Z,1.81
2022-08-11T05:16:44.702Z,1.80
2022-08-11T05:17:47.565Z,1.52
2022-08-11T05:18:50.346Z,1.57
2022-08-11T05:19:53.209Z,1.49
2022-08-11T05:20:57.505Z,1.58
2022-08-11T05:22:00.605Z,1.42
2022-08-11T05:23:03.268Z,1.34
2022-08-11T05:24:06.252Z,1.28
2022-08-11T05:25:08.926Z,1.64
2022-08-11T05:26:46.909Z,1.22
2022-08-11T05:27:15.995Z,1.32
2022-08-11T05:28:18.774Z,1.35
2022-08-11T05:29:21.644Z,1.17
2022-08-11T05:30:24.519Z,1.08
2022-08-11T05:31:27.600Z,1.17
2022-08-11T05:32:30.780Z,0.92
2022-08-11T05:33:33.454Z,1.12
2022-08-11T05:34:36.325Z,1.25
2022-08-11T05:36:00.069Z,1.20
2022-08-11T05:36:43.712Z,1.25
2022-08-11T05:37:46.377Z,1.12
2022-08-11T05:38:49.257Z,1.12
2022-08-11T05:39:52.192Z,0.99
2022-08-11T05:41:00.191Z,1.17
2022-08-11T05:41:59.525Z,1.25
2022-08-11T05:43:02.393Z,1.03
2022-08-11T05:44:21.144Z,1.18
2022-08-11T05:45:15.591Z,1.25
2022-08-11T05:46:13.788Z,1.21
2022-08-11T05:47:16.658Z,1.65
2022-08-11T05:48:19.429Z,1.25
2022-08-11T05:49:22.202Z,1.22
2022-08-11T05:50:32.793Z,1.26
2022-08-11T05:51:30.447Z,1.12
2022-08-11T05:52:33.492Z,1.26
2022-08-11T05:53:45.764Z,1.28
2022-08-11T06:02:10.017Z,1.20
2022-08-11T06:03:12.698Z,1.82
2022-08-11T06:04:15.348Z,1.32
2022-08-11T06:05:19.468Z,1.44
2022-08-11T06:06:22.426Z,1.36
2022-08-11T06:07:25.199Z,1.42
2022-08-11T06:08:27.875Z,1.42
2022-08-11T06:09:30.541Z,1.29
2022-08-11T06:10:33.286Z,1.21
2022-08-11T06:11:44.293Z,1.55
2022-08-11T06:12:40.392Z,1.66
2022-08-11T06:13:43.071Z,1.62
2022-08-11T06:14:45.848Z,1.48
2022-08-11T06:15:48.810Z,1.33
2022-08-11T06:16:51.480Z,1.68
2022-08-11T06:17:54.277Z,1.38
2022-08-11T06:18:57.130Z,1.35
2022-08-11T06:20:07.187Z,1.62
2022-08-11T06:21:04.213Z,1.64
2022-08-11T06:22:07.292Z,1.86
2022-08-11T06:23:10.061Z,1.45
2022-08-11T06:24:12.842Z,1.35
2022-08-11T06:25:15.604Z,1.38
2022-08-11T06:26:18.481Z,1.32
2022-08-11T06:27:21.154Z,1.23
2022-08-11T06:28:24.022Z,1.42
2022-08-11T06:29:46.882Z,1.48
2022-08-11T06:30:31.419Z,1.48
2022-08-11T06:31:34.622Z,1.65
2022-08-11T06:32:37.569Z,1.76
2022-08-11T06:33:40.658Z,1.55
2022-08-11T06:34:43.323Z,1.56
2022-08-11T06:35:46.297Z,1.61
2022-08-11T06:36:49.080Z,1.35
2022-08-11T06:37:53.658Z,1.49
2022-08-11T06:38:56.572Z,1.53
2022-08-11T06:40:00.115Z,1.56
2022-08-11T06:41:03.023Z,1.59
2022-08-11T06:42:06.307Z,1.65
2022-08-11T06:43:09.505Z,1.95
2022-08-11T06:44:12.464Z,1.60
2022-08-11T06:45:15.651Z,1.56
2022-08-11T06:46:25.224Z,1.62
2022-08-11T06:47:23.546Z,1.65
2022-08-11T06:48:26.529Z,1.81
2022-08-11T06:49:29.703Z,2.07
2022-08-11T06:50:32.893Z,1.78
2022-08-11T06:51:36.174Z,1.68
2022-08-11T06:52:39.050Z,1.79
2022-08-11T06:53:42.133Z,1.78
2022-08-11T06:54:46.845Z,1.93
2022-08-11T06:55:57.068Z,1.95
2022-08-11T06:57:12.453Z,1.89
2022-08-11T06:57:58.972Z,1.68
2022-08-11T06:59:01.924Z,1.74
2022-08-11T07:00:05.014Z,1.75
2022-08-11T07:01:08.340Z,1.91
2022-08-11T07:02:11.369Z,1.98
2022-08-11T07:03:14.455Z,1.50
2022-08-11T07:04:17.323Z,1.82
2022-08-11T07:05:20.296Z,2.05
2022-08-11T07:06:23.689Z,1.75
2022-08-11T07:07:26.749Z,1.62
2022-08-11T07:08:33.061Z,1.82
2022-08-11T07:09:34.562Z,1.59
2022-08-11T07:10:37.339Z,1.88
2022-08-11T07:11:40.005Z,1.98
2022-08-11T07:12:42.576Z,1.77
2022-08-11T07:13:45.965Z,1.77
2022-08-11T07:14:48.832Z,1.74
2022-08-11T07:16:10.742Z,1.91
2022-08-11T07:16:56.732Z,1.84
2022-08-11T07:17:59.503Z,1.78
2022-08-11T07:19:02.685Z,1.92
2022-08-11T07:20:05.877Z,2.19
2022-08-11T07:22:01.279Z,1.94
2022-08-11T07:22:13.571Z,1.85
2022-08-11T07:23:16.741Z,2.18
2022-08-11T07:24:20.027Z,1.85
2022-08-11T07:25:24.438Z,1.91
2022-08-11T07:26:27.329Z,1.87
2022-08-11T07:27:35.054Z,1.75
2022-08-11T07:28:35.009Z,2.21
2022-08-11T07:29:37.781Z,1.88
2022-08-11T07:30:41.269Z,1.87
2022-08-11T07:31:43.942Z,2.34
2022-08-11T07:32:46.916Z,2.12
2022-08-11T07:34:07.243Z,1.88
2022-08-11T07:34:54.203Z,2.17
2022-08-11T07:35:57.294Z,2.00
2022-08-11T07:37:00.158Z,2.31
2022-08-11T07:38:04.840Z,1.98
2022-08-11T07:39:07.189Z,2.08
2022-08-11T07:40:09.911Z,2.23
2022-08-11T07:41:12.812Z,1.99
2022-08-11T07:42:15.757Z,2.22
2022-08-11T07:43:18.834Z,2.40
2022-08-11T07:44:21.811Z,2.15
2022-08-11T07:45:24.999Z,2.32
2022-08-11T07:46:28.075Z,2.38
2022-08-11T07:47:31.053Z,2.28
2022-08-11T07:48:34.033Z,2.20
2022-08-11T07:49:37.006Z,2.42
2022-08-11T07:50:39.680Z,2.41
2022-08-11T07:51:42.653Z,2.48
2022-08-11T07:52:45.439Z,2.36
2022-08-11T07:53:58.606Z,2.53
2022-08-11T07:54:52.698Z,2.67
2022-08-11T07:55:56.203Z,2.55
2022-08-11T07:57:09.095Z,2.53
2022-08-11T07:58:19.484Z,2.18
2022-08-11T07:59:09.235Z,2.55
2022-08-11T08:00:13.231Z,2.49
2022-08-11T08:01:21.935Z,2.50
2022-08-11T08:02:22.359Z,2.38
2022-08-11T08:03:25.332Z,2.71
2022-08-11T08:04:28.209Z,2.37
2022-08-11T08:05:31.088Z,2.46
2022-08-11T08:06:36.569Z,2.59
2022-08-11T08:07:38.267Z,2.36
2022-08-11T08:08:42.163Z,2.64
2022-08-11T08:09:45.142Z,2.32
2022-08-11T08:10:47.913Z,2.68
2022-08-11T08:11:50.684Z,2.85
2022-08-11T08:12:53.356Z,2.57
2022-08-11T08:13:56.127Z,2.64
2022-08-11T08:14:58.898Z,2.69
2022-08-11T08:16:03.315Z,2.65
2022-08-11T08:17:05.985Z,2.40
2022-08-11T08:18:26.104Z,2.65
2022-08-11T08:19:12.958Z,2.88
2022-08-11T08:20:15.625Z,2.69
2022-08-11T08:21:18.295Z,2.52
2022-08-11T08:22:38.665Z,2.48
2022-08-11T08:23:25.793Z,2.67
2022-08-11T08:24:28.666Z,2.72
2022-08-11T08:25:31.537Z,2.74
2022-08-11T08:26:34.516Z,2.74
2022-08-11T08:27:37.497Z,2.72
2022-08-11T08:28:40.206Z,3.31
2022-08-11T08:29:43.145Z,3.13
2022-08-11T08:30:46.010Z,3.38
2022-08-11T08:31:48.681Z,3.13
2022-08-11T08:32:51.451Z,2.85
2022-08-11T08:33:54.239Z,2.68
2022-08-11T08:34:57.228Z,2.95
2022-08-11T08:36:00.086Z,3.11
2022-08-11T08:37:02.950Z,2.64
2022-08-11T08:38:07.467Z,2.80
2022-08-11T08:39:10.198Z,2.72
2022-08-11T08:40:13.012Z,2.68
2022-08-11T08:41:16.604Z,2.57
2022-08-11T08:42:19.577Z,2.53
2022-08-11T08:43:22.656Z,2.58
2022-08-11T08:44:41.686Z,2.28
2022-08-11T08:45:30.049Z,2.38
2022-08-11T08:46:33.229Z,2.53
2022-08-11T08:47:37.839Z,2.37
2022-08-11T08:48:40.717Z,2.30
2022-08-11T08:49:43.692Z,2.68
2022-08-11T08:50:48.003Z,2.61
2022-08-11T08:52:01.309Z,2.78
2022-08-11T08:52:54.980Z,2.49
2022-08-11T08:53:58.497Z,2.49
2022-08-11T08:55:01.547Z,2.52
2022-08-11T08:56:04.542Z,2.61
2022-08-11T08:57:07.811Z,2.82
2022-08-11T08:58:10.680Z,2.28
2022-08-11T08:59:13.458Z,2.28
2022-08-11T09:00:19.384Z,2.58
2022-08-11T09:01:21.144Z,2.43
2022-08-11T09:02:34.661Z,2.51
2022-08-11T09:04:06.660Z,2.45
2022-08-11T09:04:32.962Z,2.57
2022-08-11T09:05:35.925Z,2.33
2022-08-11T09:06:38.902Z,2.77
2022-08-11T09:07:42.228Z,2.62
2022-08-11T09:08:45.479Z,2.81
2022-08-11T09:09:48.146Z,2.46
2022-08-11T09:10:50.915Z,2.47
2022-08-11T09:11:53.655Z,2.42
2022-08-11T09:12:56.353Z,2.44
2022-08-11T09:14:05.151Z,2.58
2022-08-11T09:15:03.434Z,2.68
2022-08-11T09:16:06.208Z,2.62
2022-08-11T09:17:08.876Z,2.39
2022-08-11T09:18:11.548Z,2.64
2022-08-11T09:19:14.224Z,2.71
2022-08-11T09:20:16.991Z,3.04
2022-08-11T09:21:41.725Z,2.83
2022-08-11T09:22:24.173Z,3.05
2022-08-11T09:24:07.971Z,3.31
2022-08-11T09:24:31.151Z,3.60
2022-08-11T09:25:34.142Z,3.54
2022-08-11T09:26:36.693Z,3.72
2022-08-11T09:27:39.729Z,3.42
2022-08-11T09:28:43.773Z,3.06
2022-08-11T09:29:46.445Z,2.88
2022-08-11T09:30:49.115Z,2.90
2022-08-11T09:31:51.990Z,2.87
2022-08-11T09:32:54.778Z,2.82
2022-08-11T09:33:57.433Z,2.72
2022-08-11T09:35:00.221Z,2.59
2022-08-11T09:36:02.871Z,2.60
2022-08-11T09:37:07.196Z,2.63
2022-08-11T09:38:09.850Z,2.65
2022-08-11T09:39:12.646Z,2.88
2022-08-11T09:40:15.400Z,2.99
2022-08-11T09:41:17.963Z,3.27
2022-08-11T09:42:23.249Z,2.92
2022-08-11T09:43:26.575Z,2.81
2022-08-11T09:44:29.357Z,2.71
2022-08-11T09:45:40.141Z,2.96
2022-08-11T09:46:36.533Z,2.87
2022-08-11T09:47:39.542Z,2.78
2022-08-11T09:48:42.491Z,3.04
2022-08-11T09:49:45.472Z,2.83
2022-08-11T09:50:48.152Z,3.17
2022-08-11T09:52:02.230Z,2.98
2022-08-11T09:53:34.898Z,3.35
2022-08-11T09:54:03.032Z,3.47
2022-08-11T09:55:04.244Z,3.31
2022-08-11T09:56:07.117Z,3.53
2022-08-11T09:57:09.896Z,3.43
2022-08-11T09:58:12.761Z,3.84
2022-08-11T09:59:17.090Z,3.73
2022-08-11T10:00:19.835Z,3.31
2022-08-11T10:01:22.686Z,3.67
2022-08-11T10:02:25.386Z,3.37
2022-08-11T10:03:28.058Z,3.61
2022-08-11T10:04:30.726Z,3.68
2022-08-11T10:05:33.496Z,3.48
2022-08-11T10:06:36.270Z,3.83
2022-08-11T10:07:39.244Z,3.85
2022-08-11T10:08:42.024Z,3.78
2022-08-11T10:09:44.795Z,4.01
2022-08-11T10:10:47.470Z,3.82
2022-08-11T10:11:55.485Z,3.82
2022-08-11T10:12:54.541Z,3.61
2022-08-11T10:14:31.462Z,3.67
2022-08-11T10:15:03.077Z,3.87
2022-08-11T10:16:15.160Z,3.96
2022-08-11T10:17:10.861Z,4.17
2022-08-11T10:18:13.830Z,4.02
2022-08-11T10:19:16.806Z,4.38
2022-08-11T10:20:25.303Z,3.72
2022-08-11T10:21:24.402Z,3.65
2022-08-11T10:22:27.698Z,3.90
2022-08-11T10:23:30.862Z,3.93
2022-08-11T10:24:33.851Z,3.46
2022-08-11T10:25:36.719Z,3.42
2022-08-11T10:26:39.490Z,4.02
2022-08-11T10:28:29.086Z,3.76
2022-08-11T10:29:11.675Z,3.42
2022-08-11T10:29:51.963Z,3.70
2022-08-11T10:30:54.980Z,3.56
2022-08-11T10:32:02.104Z,3.78
2022-08-11T10:33:04.011Z,3.95
2022-08-11T10:34:08.518Z,3.75
2022-08-11T10:35:13.032Z,3.51
2022-08-11T10:36:17.037Z,3.58
2022-08-11T10:37:20.022Z,3.98
2022-08-11T10:38:23.921Z,4.07
2022-08-11T10:39:26.899Z,3.85
2022-08-11T10:40:29.869Z,3.52
2022-08-11T10:41:32.850Z,3.39
2022-08-11T10:42:57.226Z,3.58
2022-08-11T10:44:03.395Z,3.25
2022-08-11T10:44:45.135Z,3.67
2022-08-11T10:45:47.822Z,3.27
2022-08-11T10:46:50.490Z,3.55
2022-08-11T10:47:53.162Z,3.38
2022-08-11T10:48:55.830Z,3.37
2022-08-11T10:49:58.807Z,3.58
2022-08-11T10:51:01.785Z,3.62
2022-08-11T10:52:04.457Z,3.78
2022-08-11T10:53:07.533Z,3.67
2022-08-11T10:54:12.518Z,3.49
2022-08-11T10:55:14.919Z,3.54
2022-08-11T10:56:17.900Z,3.55
2022-08-11T10:57:20.882Z,3.40
2022-08-11T10:58:23.749Z,3.47
2022-08-11T10:59:26.626Z,3.63
2022-08-11T11:00:29.602Z,3.21
2022-08-11T11:01:32.686Z,3.17
2022-08-11T11:02:35.556Z,3.69
2022-08-11T11:03:38.227Z,3.55
2022-08-11T11:04:40.899Z,3.52
2022-08-11T11:06:13.296Z,3.64
2022-08-11T11:06:47.975Z,3.21
2022-08-11T11:07:50.756Z,3.18
2022-08-11T11:08:53.419Z,3.35
2022-08-11T11:09:56.299Z,3.39
2022-08-11T11:10:58.966Z,3.57
2022-08-11T11:12:01.633Z,3.72
2022-08-11T11:13:04.411Z,3.28
2022-08-11T11:14:07.279Z,3.28
2022-08-11T11:15:10.149Z,3.22
2022-08-11T11:16:14.668Z,3.19
2022-08-11T11:17:17.543Z,3.08
2022-08-11T11:18:20.416Z,3.23
2022-08-11T11:19:24.080Z,3.15
2022-08-11T11:20:36.357Z,3.16
2022-08-11T11:21:31.498Z,3.05
2022-08-11T11:22:34.378Z,3.18
2022-08-11T11:23:37.354Z,3.05
2022-08-11T11:24:40.115Z,3.18
2022-08-11T11:25:43.099Z,3.12
2022-08-11T11:26:45.771Z,2.85
2022-08-11T11:27:48.539Z,2.97
2022-08-11T11:28:51.209Z,3.16
2022-08-11T11:29:53.878Z,2.97
2022-08-11T11:30:56.551Z,2.85
2022-08-11T11:31:59.524Z,2.96
2022-08-11T11:33:05.062Z,2.83
2022-08-11T11:34:12.103Z,3.29
2022-08-11T11:35:12.655Z,3.39
2022-08-11T11:36:15.532Z,3.18
2022-08-11T11:37:18.402Z,3.25
2022-08-11T11:38:21.278Z,2.82
2022-08-11T11:39:24.114Z,2.75
2022-08-11T11:40:31.498Z,2.85
2022-08-11T11:41:31.235Z,3.13
2022-08-11T11:42:34.171Z,3.15
2022-08-11T11:43:36.887Z,3.10
2022-08-11T11:44:39.650Z,3.10
2022-08-11T11:45:42.430Z,3.48
2022-08-11T11:46:45.198Z,3.26
2022-08-11T11:47:47.965Z,3.22
2022-08-11T11:48:52.276Z,3.13
2022-08-11T11:49:55.049Z,3.15
2022-08-11T11:50:58.639Z,3.07
2022-08-11T11:52:01.423Z,3.51
2022-08-11T11:53:03.982Z,3.19
2022-08-11T11:54:06.753Z,3.42
2022-08-11T11:55:11.096Z,3.14
2022-08-11T11:56:13.740Z,3.25
2022-08-11T11:57:16.606Z,2.82
2022-08-11T11:58:19.278Z,3.05
2022-08-11T11:59:21.944Z,3.06
2022-08-11T12:00:24.637Z,3.17
2022-08-11T12:01:28.925Z,3.36
2022-08-11T12:02:31.705Z,3.29
2022-08-11T12:03:34.480Z,3.17
2022-08-11T12:04:37.239Z,3.18
2022-08-11T12:05:40.112Z,3.05
2022-08-11T12:06:42.828Z,3.20
2022-08-11T12:07:45.668Z,3.42
2022-08-11T12:08:49.966Z,3.29
2022-08-11T12:09:52.738Z,3.35
2022-08-11T12:10:55.408Z,3.45
2022-08-11T12:11:58.075Z,3.03
2022-08-11T12:13:00.849Z,3.16
2022-08-11T12:14:03.628Z,3.28
2022-08-11T12:15:07.933Z,3.19
2022-08-11T12:16:35.783Z,3.22
2022-08-11T12:17:14.908Z,3.27
2022-08-11T12:18:17.578Z,3.51
2022-08-11T12:19:20.353Z,3.32
2022-08-11T12:20:32.097Z,3.17
2022-08-11T12:21:27.531Z,3.20
2022-08-11T12:22:30.310Z,2.99
2022-08-11T12:23:33.189Z,2.87
2022-08-11T12:24:36.156Z,2.91
2022-08-11T12:25:39.031Z,2.92
2022-08-11T12:26:41.818Z,2.99
2022-08-11T12:27:44.676Z,3.47
2022-08-11T12:28:47.453Z,3.56
2022-08-11T12:29:55.047Z,3.38
2022-08-11T12:30:54.541Z,3.33
2022-08-11T12:31:57.409Z,2.98
2022-08-11T12:33:00.388Z,3.09
2022-08-11T12:34:03.254Z,3.09
2022-08-11T12:35:06.235Z,3.05
2022-08-11T12:36:09.105Z,3.01
2022-08-11T12:37:13.271Z,3.04
2022-08-11T12:38:16.295Z,2.93
2022-08-11T12:39:24.413Z,3.05
2022-08-11T12:40:49.396Z,2.82
2022-08-11T12:41:30.754Z,3.11
2022-08-11T12:42:34.038Z,3.17
2022-08-11T12:43:38.722Z,3.41
2022-08-11T12:44:41.222Z,3.14
2022-08-11T12:45:44.192Z,3.12
2022-08-11T12:46:46.978Z,3.00
2022-08-11T12:48:58.828Z,3.19
2022-08-11T12:48:59.793Z,3.05
2022-08-11T12:49:58.356Z,2.98
2022-08-11T12:51:01.439Z,3.22
2022-08-11T12:52:14.580Z,3.08
2022-08-11T12:53:08.425Z,3.43
2022-08-11T12:54:11.189Z,3.40
2022-08-11T12:55:14.165Z,3.28
2022-08-11T12:56:16.833Z,3.24
2022-08-11T12:57:24.231Z,3.03
2022-08-11T12:58:23.811Z,3.08
2022-08-11T12:59:26.696Z,2.89
2022-08-11T13:00:29.371Z,3.52
2022-08-11T13:01:32.220Z,3.22
2022-08-11T13:02:35.606Z,3.35
2022-08-11T13:03:38.390Z,3.44
2022-08-11T13:04:41.159Z,3.50
2022-08-11T13:05:45.504Z,3.28
2022-08-11T13:06:48.138Z,3.47
2022-08-11T13:07:51.447Z,3.16
2022-08-11T13:08:56.731Z,3.62
2022-08-11T13:09:58.505Z,3.43
2022-08-11T13:11:01.378Z,3.55
2022-08-11T13:12:04.253Z,3.54
2022-08-11T13:13:54.134Z,3.59
2022-08-11T13:14:14.981Z,3.19
2022-08-11T13:15:16.362Z,3.35
2022-08-11T13:16:19.235Z,3.49
2022-08-11T13:17:22.206Z,3.41
2022-08-11T13:18:26.727Z,3.26
2022-08-11T13:19:29.598Z,3.29
2022-08-11T13:20:32.476Z,3.24
2022-08-11T13:21:35.348Z,3.45
2022-08-11T13:22:38.453Z,3.05
2022-08-11T13:23:41.403Z,3.08
2022-08-11T13:24:45.714Z,3.12
2022-08-11T13:25:48.585Z,2.95
2022-08-11T13:26:51.363Z,3.02
2022-08-11T13:27:54.150Z,3.16
2022-08-11T13:28:56.799Z,3.20
2022-08-11T13:29:59.575Z,3.36
2022-08-11T13:31:02.666Z,3.52
2022-08-11T13:32:05.529Z,3.12
2022-08-11T13:33:08.404Z,3.01
2022-08-11T13:34:11.376Z,2.95
2022-08-11T13:35:14.352Z,2.95
2022-08-11T13:36:17.229Z,3.12
2022-08-11T13:37:21.436Z,3.09
2022-08-11T13:38:25.865Z,3.11
2022-08-11T13:39:28.966Z,3.03
2022-08-11T13:40:54.662Z,3.00
2022-08-11T13:41:36.416Z,2.89
2022-08-11T13:42:39.083Z,3.20
2022-08-11T13:43:42.076Z,3.14
2022-08-11T13:44:44.734Z,3.21
2022-08-11T13:45:47.710Z,3.38
2022-08-11T13:46:51.245Z,2.92
2022-08-11T13:47:54.689Z,2.99
2022-08-11T13:49:00.811Z,3.04
2022-08-11T13:50:02.075Z,3.06
2022-08-11T13:51:04.846Z,3.12
2022-08-11T13:52:07.620Z,2.84
2022-08-11T13:53:10.288Z,2.90
2022-08-11T13:54:13.059Z,3.19
2022-08-11T13:55:33.408Z,3.09
2022-08-11T13:56:20.142Z,3.11
2022-08-11T13:58:08.177Z,3.27
2022-08-11T13:58:39.645Z,3.09
2022-08-11T13:59:31.659Z,3.40
2022-08-11T14:00:34.508Z,3.22
2022-08-11T14:02:03.868Z,3.06
2022-08-11T14:02:41.715Z,3.03
2022-08-11T14:04:30.706Z,3.03
2022-08-11T14:04:48.670Z,3.29
2022-08-11T14:05:51.553Z,3.12
2022-08-11T14:06:54.323Z,2.75
2022-08-11T14:07:57.093Z,2.79
2022-08-11T14:08:59.757Z,2.94
2022-08-11T14:10:02.396Z,2.99